sensor_id;sensor_type;location;lat;lon;timestamp;P1;durP1;ratioP1;P2;durP2;ratioP2
13477;SDS011;12598;62.382;17.344;2024-01-27T00:00:35;0.98;;;0.80;;
13477;SDS011;12598;62.382;17.344;2024-01-27T00:01:37;1.23;;;1.13;;
13477;SDS011;12598;62.382;17.344;2024-01-27T00:02:39;0.80;;;0.70;;
13477;SDS011;12598;62.382;17.344;2024-01-27T00:03:41;1.30;;;1.15;;
13477;SDS011;12598;62.382;17.344;2024-01-27T00:04:42;1.17;;;1.00;;
13477;SDS011;12598;62.382;17.344;2024-01-27T00:05:44;1.15;;;0.95;;
13477;SDS011;12598;62.382;17.344;2024-01-27T00:06:46;1.35;;;1.02;;
13477;SDS011;12598;62.382;17.344;2024-01-27T00:07:48;1.45;;;0.88;;
13477;SDS011;12598;62.382;17.344;2024-01-27T00:08:50;1.42;;;1.00;;
13477;SDS011;12598;62.382;17.344;2024-01-27T00:09:52;1.63;;;1.05;;
13477;SDS011;12598;62.382;17.344;2024-01-27T00:10:54;0.85;;;0.80;;
13477;SDS011;12598;62.382;17.344;2024-01-27T00:11:56;1.50;;;1.00;;
13477;SDS011;12598;62.382;17.344;2024-01-27T00:12:57;1.83;;;1.08;;
13477;SDS011;12598;62.382;17.344;2024-01-27T00:13:59;1.30;;;1.00;;
13477;SDS011;12598;62.382;17.344;2024-01-27T00:15:01;1.15;;;1.02;;
13477;SDS011;12598;62.382;17.344;2024-01-27T00:16:03;1.50;;;1.40;;
13477;SDS011;12598;62.382;17.344;2024-01-27T00:17:05;1.40;;;0.80;;
13477;SDS011;12598;62.382;17.344;2024-01-27T00:18:07;1.92;;;0.95;;
13477;SDS011;12598;62.382;17.344;2024-01-27T00:19:09;1.33;;;0.82;;
13477;SDS011;12598;62.382;17.344;2024-01-27T00:20:11;1.13;;;0.90;;
13477;SDS011;12598;62.382;17.344;2024-01-27T00:21:13;1.45;;;0.98;;
13477;SDS011;12598;62.382;17.344;2024-01-27T00:22:15;1.23;;;0.73;;
13477;SDS011;12598;62.382;17.344;2024-01-27T00:23:18;1.08;;;0.70;;
13477;SDS011;12598;62.382;17.344;2024-01-27T00:24:20;1.10;;;0.90;;
13477;SDS011;12598;62.382;17.344;2024-01-27T00:25:21;1.00;;;0.90;;
13477;SDS011;12598;62.382;17.344;2024-01-27T00:26:23;1.20;;;1.10;;
13477;SDS011;12598;62.382;17.344;2024-01-27T00:27:25;1.38;;;0.90;;
13477;SDS011;12598;62.382;17.344;2024-01-27T00:28:27;1.10;;;1.00;;
13477;SDS011;12598;62.382;17.344;2024-01-27T00:29:28;2.03;;;1.50;;
13477;SDS011;12598;62.382;17.344;2024-01-27T00:30:30;1.13;;;0.77;;
13477;SDS011;12598;62.382;17.344;2024-01-27T00:31:32;1.00;;;0.77;;
13477;SDS011;12598;62.382;17.344;2024-01-27T00:32:34;1.27;;;0.88;;
13477;SDS011;12598;62.382;17.344;2024-01-27T00:33:36;1.10;;;1.00;;
13477;SDS011;12598;62.382;17.344;2024-01-27T00:34:38;1.45;;;1.25;;
13477;SDS011;12598;62.382;17.344;2024-01-27T00:35:40;1.73;;;1.00;;
13477;SDS011;12598;62.382;17.344;2024-01-27T00:36:42;1.52;;;0.95;;
13477;SDS011;12598;62.382;17.344;2024-01-27T00:37:49;0.90;;;0.90;;
13477;SDS011;12598;62.382;17.344;2024-01-27T00:38:51;1.42;;;1.20;;
13477;SDS011;12598;62.382;17.344;2024-01-27T00:39:54;1.67;;;1.10;;
13477;SDS011;12598;62.382;17.344;2024-01-27T00:40:56;1.27;;;1.17;;
13477;SDS011;12598;62.382;17.344;2024-01-27T00:41:57;1.30;;;1.00;;
13477;SDS011;12598;62.382;17.344;2024-01-27T00:43:02;1.02;;;0.88;;
13477;SDS011;12598;62.382;17.344;2024-01-27T00:44:04;1.02;;;0.93;;
13477;SDS011;12598;62.382;17.344;2024-01-27T00:45:06;1.00;;;0.90;;
13477;SDS011;12598;62.382;17.344;2024-01-27T00:46:08;1.55;;;1.20;;
13477;SDS011;12598;62.382;17.344;2024-01-27T00:47:10;1.23;;;1.10;;
13477;SDS011;12598;62.382;17.344;2024-01-27T00:48:12;1.17;;;1.08;;
13477;SDS011;12598;62.382;17.344;2024-01-27T00:49:14;1.35;;;0.90;;
13477;SDS011;12598;62.382;17.344;2024-01-27T00:50:16;1.40;;;1.15;;
13477;SDS011;12598;62.382;17.344;2024-01-27T00:51:17;1.23;;;1.13;;
13477;SDS011;12598;62.382;17.344;2024-01-27T00:52:19;1.30;;;0.90;;
13477;SDS011;12598;62.382;17.344;2024-01-27T00:53:21;1.33;;;1.13;;
13477;SDS011;12598;62.382;17.344;2024-01-27T00:54:23;1.10;;;1.00;;
13477;SDS011;12598;62.382;17.344;2024-01-27T00:55:27;1.02;;;0.93;;
13477;SDS011;12598;62.382;17.344;2024-01-27T00:56:29;1.20;;;1.00;;
13477;SDS011;12598;62.382;17.344;2024-01-27T00:57:30;0.98;;;0.95;;
13477;SDS011;12598;62.382;17.344;2024-01-27T00:58:32;1.42;;;0.93;;
13477;SDS011;12598;62.382;17.344;2024-01-27T00:59:35;1.35;;;1.10;;
13477;SDS011;12598;62.382;17.344;2024-01-27T01:00:37;1.40;;;0.98;;
13477;SDS011;12598;62.382;17.344;2024-01-27T01:01:38;1.02;;;0.85;;
13477;SDS011;12598;62.382;17.344;2024-01-27T01:02:40;1.23;;;0.98;;
13477;SDS011;12598;62.382;17.344;2024-01-27T01:03:42;1.48;;;1.02;;
13477;SDS011;12598;62.382;17.344;2024-01-27T01:04:44;1.05;;;0.95;;
13477;SDS011;12598;62.382;17.344;2024-01-27T01:05:46;0.85;;;0.75;;
13477;SDS011;12598;62.382;17.344;2024-01-27T01:06:48;0.77;;;0.75;;
13477;SDS011;12598;62.382;17.344;2024-01-27T01:07:50;1.02;;;0.93;;
13477;SDS011;12598;62.382;17.344;2024-01-27T01:08:52;1.00;;;0.93;;
13477;SDS011;12598;62.382;17.344;2024-01-27T01:09:53;0.88;;;0.88;;
13477;SDS011;12598;62.382;17.344;2024-01-27T01:10:55;0.80;;;0.77;;
13477;SDS011;12598;62.382;17.344;2024-01-27T01:11:57;1.00;;;0.90;;
13477;SDS011;12598;62.382;17.344;2024-01-27T01:12:59;1.17;;;1.08;;
13477;SDS011;12598;62.382;17.344;2024-01-27T01:14:01;1.13;;;0.98;;
13477;SDS011;12598;62.382;17.344;2024-01-27T01:15:02;1.10;;;0.95;;
13477;SDS011;12598;62.382;17.344;2024-01-27T01:16:05;0.90;;;0.90;;
13477;SDS011;12598;62.382;17.344;2024-01-27T01:17:09;1.23;;;1.00;;
13477;SDS011;12598;62.382;17.344;2024-01-27T01:18:11;0.70;;;0.60;;
13477;SDS011;12598;62.382;17.344;2024-01-27T01:19:13;1.10;;;0.90;;
13477;SDS011;12598;62.382;17.344;2024-01-27T01:20:15;0.98;;;0.77;;
13477;SDS011;12598;62.382;17.344;2024-01-27T01:21:16;1.00;;;0.80;;
13477;SDS011;12598;62.382;17.344;2024-01-27T01:22:18;0.60;;;0.60;;
13477;SDS011;12598;62.382;17.344;2024-01-27T01:23:20;0.80;;;0.65;;
13477;SDS011;12598;62.382;17.344;2024-01-27T01:24:22;1.45;;;0.95;;
13477;SDS011;12598;62.382;17.344;2024-01-27T01:25:24;0.95;;;0.90;;
13477;SDS011;12598;62.382;17.344;2024-01-27T01:26:26;0.60;;;0.55;;
13477;SDS011;12598;62.382;17.344;2024-01-27T01:27:27;1.23;;;1.05;;
13477;SDS011;12598;62.382;17.344;2024-01-27T01:28:30;1.05;;;0.98;;
13477;SDS011;12598;62.382;17.344;2024-01-27T01:29:33;1.00;;;0.90;;
13477;SDS011;12598;62.382;17.344;2024-01-27T01:30:36;1.10;;;0.75;;
13477;SDS011;12598;62.382;17.344;2024-01-27T01:31:38;1.15;;;1.00;;
13477;SDS011;12598;62.382;17.344;2024-01-27T01:32:43;1.00;;;0.93;;
13477;SDS011;12598;62.382;17.344;2024-01-27T01:33:45;1.10;;;1.00;;
13477;SDS011;12598;62.382;17.344;2024-01-27T01:34:47;1.00;;;0.90;;
13477;SDS011;12598;62.382;17.344;2024-01-27T01:35:49;1.17;;;0.90;;
13477;SDS011;12598;62.382;17.344;2024-01-27T01:36:51;0.90;;;0.82;;
13477;SDS011;12598;62.382;17.344;2024-01-27T01:37:53;0.90;;;0.80;;
13477;SDS011;12598;62.382;17.344;2024-01-27T01:38:55;1.00;;;0.82;;
13477;SDS011;12598;62.382;17.344;2024-01-27T01:39:57;0.95;;;0.85;;
13477;SDS011;12598;62.382;17.344;2024-01-27T01:40:58;1.02;;;0.90;;
13477;SDS011;12598;62.382;17.344;2024-01-27T01:42:00;1.08;;;1.00;;
13477;SDS011;12598;62.382;17.344;2024-01-27T01:43:02;1.02;;;1.00;;
13477;SDS011;12598;62.382;17.344;2024-01-27T01:44:05;1.13;;;1.02;;
13477;SDS011;12598;62.382;17.344;2024-01-27T01:45:09;1.67;;;1.58;;
13477;SDS011;12598;62.382;17.344;2024-01-27T01:46:14;1.63;;;1.50;;
13477;SDS011;12598;62.382;17.344;2024-01-27T01:47:16;1.60;;;1.50;;
13477;SDS011;12598;62.382;17.344;2024-01-27T01:48:18;1.98;;;1.50;;
13477;SDS011;12598;62.382;17.344;2024-01-27T01:49:19;1.50;;;1.38;;
13477;SDS011;12598;62.382;17.344;2024-01-27T01:50:22;2.75;;;1.88;;
13477;SDS011;12598;62.382;17.344;2024-01-27T01:51:23;2.20;;;1.83;;
13477;SDS011;12598;62.382;17.344;2024-01-27T01:52:27;1.50;;;1.40;;
13477;SDS011;12598;62.382;17.344;2024-01-27T01:53:29;2.67;;;1.70;;
13477;SDS011;12598;62.382;17.344;2024-01-27T01:54:31;1.70;;;1.50;;
13477;SDS011;12598;62.382;17.344;2024-01-27T01:55:34;1.60;;;1.50;;
13477;SDS011;12598;62.382;17.344;2024-01-27T01:56:36;2.13;;;1.70;;
13477;SDS011;12598;62.382;17.344;2024-01-27T01:57:38;1.90;;;1.20;;
13477;SDS011;12598;62.382;17.344;2024-01-27T01:58:40;2.50;;;1.48;;
13477;SDS011;12598;62.382;17.344;2024-01-27T01:59:43;2.05;;;1.60;;
13477;SDS011;12598;62.382;17.344;2024-01-27T02:00:45;2.42;;;1.70;;
13477;SDS011;12598;62.382;17.344;2024-01-27T02:01:47;1.67;;;1.30;;
13477;SDS011;12598;62.382;17.344;2024-01-27T02:02:48;1.73;;;1.50;;
13477;SDS011;12598;62.382;17.344;2024-01-27T02:03:54;1.58;;;1.35;;
13477;SDS011;12598;62.382;17.344;2024-01-27T02:04:56;1.50;;;1.17;;
13477;SDS011;12598;62.382;17.344;2024-01-27T02:05:58;1.45;;;1.17;;
13477;SDS011;12598;62.382;17.344;2024-01-27T02:07:00;1.35;;;1.10;;
13477;SDS011;12598;62.382;17.344;2024-01-27T02:08:02;1.75;;;1.20;;
13477;SDS011;12598;62.382;17.344;2024-01-27T02:09:05;1.33;;;1.15;;
13477;SDS011;12598;62.382;17.344;2024-01-27T02:10:14;1.48;;;1.20;;
13477;SDS011;12598;62.382;17.344;2024-01-27T02:11:20;1.58;;;1.30;;
13477;SDS011;12598;62.382;17.344;2024-01-27T02:12:21;1.13;;;1.00;;
13477;SDS011;12598;62.382;17.344;2024-01-27T02:13:23;2.75;;;1.45;;
13477;SDS011;12598;62.382;17.344;2024-01-27T02:14:25;1.30;;;1.10;;
13477;SDS011;12598;62.382;17.344;2024-01-27T02:15:28;2.05;;;1.10;;
13477;SDS011;12598;62.382;17.344;2024-01-27T02:16:30;1.30;;;1.20;;
13477;SDS011;12598;62.382;17.344;2024-01-27T02:17:32;1.35;;;1.20;;
13477;SDS011;12598;62.382;17.344;2024-01-27T02:18:34;2.40;;;1.30;;
13477;SDS011;12598;62.382;17.344;2024-01-27T02:19:36;1.27;;;1.13;;
13477;SDS011;12598;62.382;17.344;2024-01-27T02:20:38;2.67;;;2.10;;
13477;SDS011;12598;62.382;17.344;2024-01-27T02:21:40;1.70;;;1.60;;
13477;SDS011;12598;62.382;17.344;2024-01-27T02:22:42;2.17;;;1.85;;
13477;SDS011;12598;62.382;17.344;2024-01-27T02:23:44;2.50;;;2.10;;
13477;SDS011;12598;62.382;17.344;2024-01-27T02:24:45;2.90;;;2.47;;
13477;SDS011;12598;62.382;17.344;2024-01-27T02:25:48;2.35;;;2.15;;
13477;SDS011;12598;62.382;17.344;2024-01-27T02:26:51;2.00;;;1.77;;
13477;SDS011;12598;62.382;17.344;2024-01-27T02:27:53;2.10;;;1.90;;
13477;SDS011;12598;62.382;17.344;2024-01-27T02:28:55;2.63;;;1.95;;
13477;SDS011;12598;62.382;17.344;2024-01-27T02:29:56;2.05;;;1.83;;
13477;SDS011;12598;62.382;17.344;2024-01-27T02:30:59;2.38;;;2.10;;
13477;SDS011;12598;62.382;17.344;2024-01-27T02:32:04;1.80;;;1.70;;
13477;SDS011;12598;62.382;17.344;2024-01-27T02:33:06;1.73;;;1.63;;
13477;SDS011;12598;62.382;17.344;2024-01-27T02:34:08;2.35;;;1.40;;
13477;SDS011;12598;62.382;17.344;2024-01-27T02:35:10;1.95;;;1.75;;
13477;SDS011;12598;62.382;17.344;2024-01-27T02:36:12;1.73;;;1.60;;
13477;SDS011;12598;62.382;17.344;2024-01-27T02:37:14;2.92;;;1.30;;
13477;SDS011;12598;62.382;17.344;2024-01-27T02:38:16;1.50;;;1.40;;
13477;SDS011;12598;62.382;17.344;2024-01-27T02:39:17;1.73;;;1.38;;
13477;SDS011;12598;62.382;17.344;2024-01-27T02:40:19;1.92;;;1.42;;
13477;SDS011;12598;62.382;17.344;2024-01-27T02:41:21;1.20;;;1.10;;
13477;SDS011;12598;62.382;17.344;2024-01-27T02:42:23;1.67;;;1.35;;
13477;SDS011;12598;62.382;17.344;2024-01-27T02:43:25;1.40;;;1.30;;
13477;SDS011;12598;62.382;17.344;2024-01-27T02:44:27;1.70;;;1.30;;
13477;SDS011;12598;62.382;17.344;2024-01-27T02:45:28;1.35;;;1.10;;
13477;SDS011;12598;62.382;17.344;2024-01-27T02:46:30;2.03;;;1.27;;
13477;SDS011;12598;62.382;17.344;2024-01-27T02:47:32;1.35;;;1.25;;
13477;SDS011;12598;62.382;17.344;2024-01-27T02:48:34;1.83;;;1.10;;
13477;SDS011;12598;62.382;17.344;2024-01-27T02:49:36;1.75;;;1.20;;
13477;SDS011;12598;62.382;17.344;2024-01-27T02:50:38;1.70;;;0.98;;
13477;SDS011;12598;62.382;17.344;2024-01-27T02:51:40;1.10;;;1.00;;
13477;SDS011;12598;62.382;17.344;2024-01-27T02:52:42;1.25;;;1.10;;
13477;SDS011;12598;62.382;17.344;2024-01-27T02:53:44;1.30;;;0.70;;
13477;SDS011;12598;62.382;17.344;2024-01-27T02:54:46;1.42;;;1.30;;
13477;SDS011;12598;62.382;17.344;2024-01-27T02:55:48;1.00;;;0.80;;
13477;SDS011;12598;62.382;17.344;2024-01-27T02:56:49;1.58;;;1.13;;
13477;SDS011;12598;62.382;17.344;2024-01-27T02:57:51;0.98;;;0.80;;
13477;SDS011;12598;62.382;17.344;2024-01-27T02:58:53;0.88;;;0.77;;
13477;SDS011;12598;62.382;17.344;2024-01-27T02:59:55;1.48;;;0.90;;
13477;SDS011;12598;62.382;17.344;2024-01-27T03:00:56;0.65;;;0.63;;
13477;SDS011;12598;62.382;17.344;2024-01-27T03:01:58;0.80;;;0.60;;
13477;SDS011;12598;62.382;17.344;2024-01-27T03:03:00;1.85;;;1.17;;
13477;SDS011;12598;62.382;17.344;2024-01-27T03:04:02;1.23;;;0.80;;
13477;SDS011;12598;62.382;17.344;2024-01-27T03:05:05;0.90;;;0.63;;
13477;SDS011;12598;62.382;17.344;2024-01-27T03:06:07;0.90;;;0.80;;
13477;SDS011;12598;62.382;17.344;2024-01-27T03:07:09;1.83;;;0.85;;
13477;SDS011;12598;62.382;17.344;2024-01-27T03:08:11;1.08;;;0.82;;
13477;SDS011;12598;62.382;17.344;2024-01-27T03:09:13;2.13;;;0.90;;
13477;SDS011;12598;62.382;17.344;2024-01-27T03:10:15;1.25;;;0.70;;
13477;SDS011;12598;62.382;17.344;2024-01-27T03:11:17;1.75;;;0.80;;
13477;SDS011;12598;62.382;17.344;2024-01-27T03:12:19;1.20;;;0.75;;
13477;SDS011;12598;62.382;17.344;2024-01-27T03:13:20;0.98;;;0.70;;
13477;SDS011;12598;62.382;17.344;2024-01-27T03:14:23;1.13;;;0.93;;
13477;SDS011;12598;62.382;17.344;2024-01-27T03:15:24;1.58;;;0.65;;
13477;SDS011;12598;62.382;17.344;2024-01-27T03:16:26;1.20;;;0.85;;
13477;SDS011;12598;62.382;17.344;2024-01-27T03:17:29;1.10;;;0.70;;
13477;SDS011;12598;62.382;17.344;2024-01-27T03:18:31;1.83;;;0.70;;
13477;SDS011;12598;62.382;17.344;2024-01-27T03:19:33;1.75;;;0.90;;
13477;SDS011;12598;62.382;17.344;2024-01-27T03:20:35;1.50;;;0.90;;
13477;SDS011;12598;62.382;17.344;2024-01-27T03:21:36;2.15;;;1.10;;
13477;SDS011;12598;62.382;17.344;2024-01-27T03:22:38;1.77;;;0.82;;
13477;SDS011;12598;62.382;17.344;2024-01-27T03:23:42;1.80;;;0.90;;
13477;SDS011;12598;62.382;17.344;2024-01-27T03:24:43;1.27;;;0.70;;
13477;SDS011;12598;62.382;17.344;2024-01-27T03:25:45;1.60;;;1.23;;
13477;SDS011;12598;62.382;17.344;2024-01-27T03:26:47;1.42;;;0.90;;
13477;SDS011;12598;62.382;17.344;2024-01-27T03:27:49;3.10;;;1.00;;
13477;SDS011;12598;62.382;17.344;2024-01-27T03:28:51;1.80;;;0.90;;
13477;SDS011;12598;62.382;17.344;2024-01-27T03:29:52;1.45;;;1.00;;
13477;SDS011;12598;62.382;17.344;2024-01-27T03:30:54;1.90;;;0.88;;
13477;SDS011;12598;62.382;17.344;2024-01-27T03:31:56;2.10;;;1.10;;
13477;SDS011;12598;62.382;17.344;2024-01-27T03:32:58;2.85;;;1.00;;
13477;SDS011;12598;62.382;17.344;2024-01-27T03:34:00;2.00;;;1.00;;
13477;SDS011;12598;62.382;17.344;2024-01-27T03:35:03;1.75;;;0.90;;
13477;SDS011;12598;62.382;17.344;2024-01-27T03:36:09;2.22;;;1.15;;
13477;SDS011;12598;62.382;17.344;2024-01-27T03:37:12;2.50;;;1.17;;
13477;SDS011;12598;62.382;17.344;2024-01-27T03:38:14;2.15;;;1.13;;
13477;SDS011;12598;62.382;17.344;2024-01-27T03:39:15;2.53;;;1.00;;
13477;SDS011;12598;62.382;17.344;2024-01-27T03:40:17;1.52;;;0.90;;
13477;SDS011;12598;62.382;17.344;2024-01-27T03:41:19;1.65;;;1.10;;
13477;SDS011;12598;62.382;17.344;2024-01-27T03:42:21;1.63;;;1.02;;
13477;SDS011;12598;62.382;17.344;2024-01-27T03:43:23;2.03;;;0.93;;
13477;SDS011;12598;62.382;17.344;2024-01-27T03:44:25;2.30;;;0.95;;
13477;SDS011;12598;62.382;17.344;2024-01-27T03:45:26;2.08;;;0.90;;
13477;SDS011;12598;62.382;17.344;2024-01-27T03:46:28;2.90;;;1.33;;
13477;SDS011;12598;62.382;17.344;2024-01-27T03:47:30;3.08;;;1.10;;
13477;SDS011;12598;62.382;17.344;2024-01-27T03:48:32;1.73;;;1.15;;
13477;SDS011;12598;62.382;17.344;2024-01-27T03:49:34;2.05;;;1.27;;
13477;SDS011;12598;62.382;17.344;2024-01-27T03:50:36;2.33;;;1.10;;
13477;SDS011;12598;62.382;17.344;2024-01-27T03:51:38;1.98;;;1.10;;
13477;SDS011;12598;62.382;17.344;2024-01-27T03:52:40;2.22;;;1.02;;
13477;SDS011;12598;62.382;17.344;2024-01-27T03:53:42;1.63;;;0.70;;
13477;SDS011;12598;62.382;17.344;2024-01-27T03:54:44;1.90;;;1.10;;
13477;SDS011;12598;62.382;17.344;2024-01-27T03:55:46;3.28;;;1.23;;
13477;SDS011;12598;62.382;17.344;2024-01-27T03:56:48;2.08;;;0.93;;
13477;SDS011;12598;62.382;17.344;2024-01-27T03:57:50;2.17;;;0.80;;
13477;SDS011;12598;62.382;17.344;2024-01-27T03:58:51;2.22;;;0.90;;
13477;SDS011;12598;62.382;17.344;2024-01-27T03:59:53;2.25;;;1.10;;
13477;SDS011;12598;62.382;17.344;2024-01-27T04:00:56;2.13;;;0.98;;
13477;SDS011;12598;62.382;17.344;2024-01-27T04:01:58;1.75;;;0.90;;
13477;SDS011;12598;62.382;17.344;2024-01-27T04:03:00;2.88;;;1.27;;
13477;SDS011;12598;62.382;17.344;2024-01-27T04:04:02;1.75;;;0.88;;
13477;SDS011;12598;62.382;17.344;2024-01-27T04:05:05;1.90;;;0.88;;
13477;SDS011;12598;62.382;17.344;2024-01-27T04:06:07;1.55;;;1.20;;
13477;SDS011;12598;62.382;17.344;2024-01-27T04:07:09;1.48;;;0.90;;
13477;SDS011;12598;62.382;17.344;2024-01-27T04:08:11;1.75;;;0.90;;
13477;SDS011;12598;62.382;17.344;2024-01-27T04:09:13;3.08;;;1.38;;
13477;SDS011;12598;62.382;17.344;2024-01-27T04:10:15;1.90;;;1.02;;
13477;SDS011;12598;62.382;17.344;2024-01-27T04:11:20;2.08;;;0.93;;
13477;SDS011;12598;62.382;17.344;2024-01-27T04:12:23;2.42;;;1.00;;
13477;SDS011;12598;62.382;17.344;2024-01-27T04:13:25;2.20;;;0.95;;
13477;SDS011;12598;62.382;17.344;2024-01-27T04:14:26;1.88;;;0.93;;
13477;SDS011;12598;62.382;17.344;2024-01-27T04:15:28;1.63;;;0.80;;
13477;SDS011;12598;62.382;17.344;2024-01-27T04:16:30;3.03;;;1.00;;
13477;SDS011;12598;62.382;17.344;2024-01-27T04:17:32;2.00;;;0.77;;
13477;SDS011;12598;62.382;17.344;2024-01-27T04:18:34;1.60;;;0.93;;
13477;SDS011;12598;62.382;17.344;2024-01-27T04:19:36;1.60;;;0.80;;
13477;SDS011;12598;62.382;17.344;2024-01-27T04:20:38;2.17;;;1.10;;
13477;SDS011;12598;62.382;17.344;2024-01-27T04:21:40;1.67;;;0.90;;
13477;SDS011;12598;62.382;17.344;2024-01-27T04:22:42;1.67;;;1.00;;
13477;SDS011;12598;62.382;17.344;2024-01-27T04:23:44;2.85;;;1.10;;
13477;SDS011;12598;62.382;17.344;2024-01-27T04:24:46;2.08;;;1.02;;
13477;SDS011;12598;62.382;17.344;2024-01-27T04:25:48;1.75;;;0.85;;
13477;SDS011;12598;62.382;17.344;2024-01-27T04:26:50;2.15;;;0.93;;
13477;SDS011;12598;62.382;17.344;2024-01-27T04:27:51;1.85;;;1.00;;
13477;SDS011;12598;62.382;17.344;2024-01-27T04:28:54;1.50;;;1.00;;
13477;SDS011;12598;62.382;17.344;2024-01-27T04:29:56;3.15;;;1.00;;
13477;SDS011;12598;62.382;17.344;2024-01-27T04:30:58;2.45;;;0.90;;
13477;SDS011;12598;62.382;17.344;2024-01-27T04:32:00;1.50;;;1.00;;
13477;SDS011;12598;62.382;17.344;2024-01-27T04:33:01;2.08;;;1.10;;
13477;SDS011;12598;62.382;17.344;2024-01-27T04:34:04;1.92;;;1.10;;
13477;SDS011;12598;62.382;17.344;2024-01-27T04:35:09;1.35;;;0.88;;
13477;SDS011;12598;62.382;17.344;2024-01-27T04:36:12;1.98;;;0.90;;
13477;SDS011;12598;62.382;17.344;2024-01-27T04:37:14;2.10;;;1.10;;
13477;SDS011;12598;62.382;17.344;2024-01-27T04:38:16;3.08;;;0.82;;
13477;SDS011;12598;62.382;17.344;2024-01-27T04:39:17;2.28;;;0.95;;
13477;SDS011;12598;62.382;17.344;2024-01-27T04:40:19;1.85;;;1.10;;
13477;SDS011;12598;62.382;17.344;2024-01-27T04:41:21;1.70;;;0.82;;
13477;SDS011;12598;62.382;17.344;2024-01-27T04:42:23;2.13;;;1.00;;
13477;SDS011;12598;62.382;17.344;2024-01-27T04:43:25;1.73;;;0.73;;
13477;SDS011;12598;62.382;17.344;2024-01-27T04:44:27;1.88;;;0.93;;
13477;SDS011;12598;62.382;17.344;2024-01-27T04:45:28;3.17;;;1.15;;
13477;SDS011;12598;62.382;17.344;2024-01-27T04:46:30;2.65;;;1.15;;
13477;SDS011;12598;62.382;17.344;2024-01-27T04:47:32;1.85;;;0.80;;
13477;SDS011;12598;62.382;17.344;2024-01-27T04:48:34;1.50;;;0.90;;
13477;SDS011;12598;62.382;17.344;2024-01-27T04:49:36;2.22;;;0.88;;
13477;SDS011;12598;62.382;17.344;2024-01-27T04:50:38;2.80;;;0.90;;
13477;SDS011;12598;62.382;17.344;2024-01-27T04:51:40;2.13;;;1.25;;
13477;SDS011;12598;62.382;17.344;2024-01-27T04:52:42;1.70;;;0.82;;
13477;SDS011;12598;62.382;17.344;2024-01-27T04:53:44;2.80;;;1.10;;
13477;SDS011;12598;62.382;17.344;2024-01-27T04:54:45;2.00;;;1.20;;
13477;SDS011;12598;62.382;17.344;2024-01-27T04:55:47;1.77;;;0.80;;
13477;SDS011;12598;62.382;17.344;2024-01-27T04:56:49;1.65;;;0.90;;
13477;SDS011;12598;62.382;17.344;2024-01-27T04:57:51;3.25;;;1.20;;
13477;SDS011;12598;62.382;17.344;2024-01-27T04:58:53;1.88;;;1.00;;
13477;SDS011;12598;62.382;17.344;2024-01-27T04:59:55;2.63;;;1.00;;
13477;SDS011;12598;62.382;17.344;2024-01-27T05:00:56;1.38;;;0.82;;
13477;SDS011;12598;62.382;17.344;2024-01-27T05:01:58;1.40;;;0.77;;
13477;SDS011;12598;62.382;17.344;2024-01-27T05:03:00;2.67;;;1.05;;
13477;SDS011;12598;62.382;17.344;2024-01-27T05:04:06;2.08;;;0.80;;
13477;SDS011;12598;62.382;17.344;2024-01-27T05:05:08;2.03;;;1.08;;
13477;SDS011;12598;62.382;17.344;2024-01-27T05:06:10;2.47;;;0.93;;
13477;SDS011;12598;62.382;17.344;2024-01-27T05:07:12;1.90;;;1.02;;
13477;SDS011;12598;62.382;17.344;2024-01-27T05:08:14;2.65;;;1.10;;
13477;SDS011;12598;62.382;17.344;2024-01-27T05:09:16;2.35;;;1.27;;
13477;SDS011;12598;62.382;17.344;2024-01-27T05:10:18;2.15;;;1.10;;
13477;SDS011;12598;62.382;17.344;2024-01-27T05:11:29;1.75;;;0.82;;
13477;SDS011;12598;62.382;17.344;2024-01-27T05:12:32;1.45;;;0.80;;
13477;SDS011;12598;62.382;17.344;2024-01-27T05:13:34;2.80;;;1.17;;
13477;SDS011;12598;62.382;17.344;2024-01-27T05:14:36;3.60;;;1.35;;
13477;SDS011;12598;62.382;17.344;2024-01-27T05:15:38;3.30;;;1.30;;
13477;SDS011;12598;62.382;17.344;2024-01-27T05:16:40;2.00;;;0.77;;
13477;SDS011;12598;62.382;17.344;2024-01-27T05:17:42;2.75;;;1.20;;
13477;SDS011;12598;62.382;17.344;2024-01-27T05:18:44;3.10;;;1.05;;
13477;SDS011;12598;62.382;17.344;2024-01-27T05:19:45;2.70;;;1.02;;
13477;SDS011;12598;62.382;17.344;2024-01-27T05:20:47;2.25;;;1.10;;
13477;SDS011;12598;62.382;17.344;2024-01-27T05:21:49;2.65;;;1.23;;
13477;SDS011;12598;62.382;17.344;2024-01-27T05:22:51;1.90;;;0.95;;
13477;SDS011;12598;62.382;17.344;2024-01-27T05:23:53;2.47;;;0.95;;
13477;SDS011;12598;62.382;17.344;2024-01-27T05:24:56;1.30;;;0.90;;
13477;SDS011;12598;62.382;17.344;2024-01-27T05:25:58;2.00;;;0.82;;
13477;SDS011;12598;62.382;17.344;2024-01-27T05:27:00;2.05;;;1.10;;
13477;SDS011;12598;62.382;17.344;2024-01-27T05:28:02;2.28;;;0.90;;
13477;SDS011;12598;62.382;17.344;2024-01-27T05:29:04;2.17;;;1.05;;
13477;SDS011;12598;62.382;17.344;2024-01-27T05:30:06;1.20;;;0.82;;
13477;SDS011;12598;62.382;17.344;2024-01-27T05:31:08;3.38;;;1.10;;
13477;SDS011;12598;62.382;17.344;2024-01-27T05:32:10;1.67;;;1.08;;
13477;SDS011;12598;62.382;17.344;2024-01-27T05:33:12;2.20;;;1.25;;
13477;SDS011;12598;62.382;17.344;2024-01-27T05:34:14;3.15;;;1.00;;
13477;SDS011;12598;62.382;17.344;2024-01-27T05:35:16;2.38;;;1.00;;
13477;SDS011;12598;62.382;17.344;2024-01-27T05:36:18;2.28;;;1.10;;
13477;SDS011;12598;62.382;17.344;2024-01-27T05:37:20;2.70;;;1.17;;
13477;SDS011;12598;62.382;17.344;2024-01-27T05:38:22;1.75;;;1.00;;
13477;SDS011;12598;62.382;17.344;2024-01-27T05:39:24;1.42;;;1.00;;
13477;SDS011;12598;62.382;17.344;2024-01-27T05:40:25;2.40;;;1.10;;
13477;SDS011;12598;62.382;17.344;2024-01-27T05:41:27;2.05;;;0.77;;
13477;SDS011;12598;62.382;17.344;2024-01-27T05:42:32;1.90;;;0.88;;
13477;SDS011;12598;62.382;17.344;2024-01-27T05:43:34;2.03;;;1.00;;
13477;SDS011;12598;62.382;17.344;2024-01-27T05:44:35;3.75;;;1.20;;
13477;SDS011;12598;62.382;17.344;2024-01-27T05:45:39;2.30;;;1.13;;
13477;SDS011;12598;62.382;17.344;2024-01-27T05:46:40;2.33;;;1.00;;
13477;SDS011;12598;62.382;17.344;2024-01-27T05:47:42;2.65;;;1.02;;
13477;SDS011;12598;62.382;17.344;2024-01-27T05:48:44;2.47;;;1.00;;
13477;SDS011;12598;62.382;17.344;2024-01-27T05:49:46;2.22;;;1.00;;
13477;SDS011;12598;62.382;17.344;2024-01-27T05:50:54;2.05;;;0.90;;
13477;SDS011;12598;62.382;17.344;2024-01-27T05:51:57;1.67;;;1.05;;
13477;SDS011;12598;62.382;17.344;2024-01-27T05:52:59;1.92;;;1.02;;
13477;SDS011;12598;62.382;17.344;2024-01-27T05:54:01;1.65;;;1.10;;
13477;SDS011;12598;62.382;17.344;2024-01-27T05:55:04;2.28;;;1.10;;
13477;SDS011;12598;62.382;17.344;2024-01-27T05:56:08;1.60;;;0.80;;
13477;SDS011;12598;62.382;17.344;2024-01-27T05:57:10;1.77;;;1.17;;
13477;SDS011;12598;62.382;17.344;2024-01-27T05:58:12;2.45;;;1.00;;
13477;SDS011;12598;62.382;17.344;2024-01-27T05:59:13;1.67;;;1.00;;
13477;SDS011;12598;62.382;17.344;2024-01-27T06:00:15;2.03;;;0.90;;
13477;SDS011;12598;62.382;17.344;2024-01-27T06:01:17;3.08;;;1.02;;
13477;SDS011;12598;62.382;17.344;2024-01-27T06:02:20;1.95;;;1.00;;
13477;SDS011;12598;62.382;17.344;2024-01-27T06:03:22;1.90;;;1.10;;
13477;SDS011;12598;62.382;17.344;2024-01-27T06:04:24;2.33;;;0.88;;
13477;SDS011;12598;62.382;17.344;2024-01-27T06:05:26;1.85;;;0.90;;
13477;SDS011;12598;62.382;17.344;2024-01-27T06:06:28;2.75;;;1.00;;
13477;SDS011;12598;62.382;17.344;2024-01-27T06:07:30;2.17;;;1.30;;
13477;SDS011;12598;62.382;17.344;2024-01-27T06:08:32;2.97;;;1.20;;